Time;durP1;ratioP1;P1;durP2;ratioP2;P2;SDS_P1;SDS_P2;PMS_P1;PMS_P2;Temp;Humidity;BMP_temperature;BMP_pressure;BME280_temperature;BME280_humidity;BME280_pressure;Samples;Min_cycle;Max_cycle;Signal;HPM_P1;HPM_P2
2022/12/10 00:01:44;;;;;;;67.35;22.20;;;;;;;-1.11;100.00;94143.25;5019674;28;20042;-70
2022/12/10 00:04:11;;;;;;;66.78;21.25;;;;;;;-1.07;100.00;94143.59;5018835;28;20037;-70
2022/12/10 00:06:39;;;;;;;75.78;22.88;;;;;;;-1.16;100.00;94144.97;5020719;28;20046;-70
2022/12/10 00:09:07;;;;;;;69.30;22.42;;;;;;;-1.14;100.00;94148.09;5030687;28;20037;-69
2022/12/10 00:11:33;;;;;;;62.95;21.15;;;;;;;-1.05;100.00;94141.56;5027167;28;20492;-70
2022/12/10 00:13:59;;;;;;;76.05;20.90;;;;;;;-1.01;100.00;94142.66;5018871;28;20052;-70
2022/12/10 00:16:27;;;;;;;67.95;22.02;;;;;;;-1.08;100.00;94136.84;5021771;28;20038;-71
2022/12/10 00:18:53;;;;;;;75.75;21.67;;;;;;;-1.03;100.00;94139.53;5026009;28;20041;-70
2022/12/10 00:21:23;;;;;;;72.72;23.38;;;;;;;-1.01;100.00;94137.50;5026254;28;20048;-70
2022/12/10 00:23:49;;;;;;;65.50;22.50;;;;;;;-1.10;100.00;94139.66;5028758;28;20053;-70
2022/12/10 00:26:20;;;;;;;70.90;23.17;;;;;;;-1.10;100.00;94138.91;5023822;28;20038;-70
2022/12/10 00:28:47;;;;;;;74.43;21.80;;;;;;;-1.09;100.00;94135.31;5020770;28;20034;-70
2022/12/10 00:31:15;;;;;;;71.53;21.17;;;;;;;-1.05;100.00;94131.22;5031164;28;20041;-70
2022/12/10 00:33:42;;;;;;;74.28;22.95;;;;;;;-1.13;100.00;94132.38;5012638;28;20046;-69
2022/12/10 00:36:18;;;;;;;67.95;21.10;;;;;;;-1.12;100.00;94135.75;5019395;28;20042;-70
2022/12/10 00:38:45;;;;;;;64.80;21.00;;;;;;;-1.13;100.00;94134.19;5022779;28;20046;-70
2022/12/10 00:41:12;;;;;;;81.68;23.27;;;;;;;-1.14;100.00;94142.94;5029427;28;20517;-71
2022/12/10 00:43:37;;;;;;;74.60;20.48;;;;;;;-1.15;100.00;94138.78;5021225;28;20044;-71
2022/12/10 00:46:04;;;;;;;68.20;21.58;;;;;;;-1.12;100.00;94130.56;5028486;28;20041;-71
2022/12/10 00:48:30;;;;;;;68.90;20.67;;;;;;;-1.12;100.00;94140.91;5021492;28;20046;-70
2022/12/10 00:51:07;;;;;;;57.70;20.02;;;;;;;-1.07;100.00;94143.59;5025753;28;20083;-71
2022/12/10 00:53:35;;;;;;;64.40;20.77;;;;;;;-1.07;100.00;94138.44;5021627;28;20045;-72
2022/12/10 00:56:01;;;;;;;82.25;22.45;;;;;;;-1.13;100.00;94145.28;5024525;28;20038;-71
2022/12/10 00:58:29;;;;;;;80.30;23.63;;;;;;;-1.14;100.00;94153.28;5018283;28;20041;-70
2022/12/10 01:01:05;;;;;;;76.43;22.55;;;;;;;-1.15;100.00;94159.44;5026345;28;20495;-70
2022/12/10 01:03:30;;;;;;;72.05;21.00;;;;;;;-1.12;100.00;94166.72;5012193;28;20053;-70
2022/12/10 01:05:56;;;;;;;71.35;22.98;;;;;;;-1.16;100.00;94171.56;5027131;28;20084;-71
2022/12/10 01:08:21;;;;;;;71.13;21.25;;;;;;;-1.12;100.00;94166.72;5025238;28;20505;-70
2022/12/10 01:10:53;;;;;;;79.45;21.63;;;;;;;-1.11;100.00;94163.91;5024022;28;20049;-71
2022/12/10 01:13:18;;;;;;;67.75;20.63;;;;;;;-1.07;100.00;94161.66;5020262;28;20052;-71
2022/12/10 01:15:44;;;;;;;67.32;20.92;;;;;;;-1.09;100.00;94163.72;5014934;28;20045;-71
2022/12/10 01:18:09;;;;;;;60.30;19.88;;;;;;;-1.12;100.00;94169.31;5023793;28;20041;-71
2022/12/10 01:20:36;;;;;;;59.10;19.48;;;;;;;-1.10;100.00;94164.72;5021972;28;20046;-69
2022/12/10 01:23:02;;;;;;;73.10;20.95;;;;;;;-1.14;100.00;94163.59;5029411;28;20556;-71
2022/12/10 01:25:27;;;;;;;70.82;21.27;;;;;;;-1.28;100.00;94150.97;5021793;28;20038;-71
2022/12/10 01:27:53;;;;;;;66.35;20.92;;;;;;;-1.30;100.00;94160.72;5028158;28;20041;-71
2022/12/10 01:30:18;;;;;;;68.97;20.40;;;;;;;-1.26;100.00;94146.34;5028617;28;20045;-71
2022/12/10 01:32:44;;;;;;;64.93;22.08;;;;;;;-1.23;100.00;94161.38;5026311;28;20118;-71
2022/12/10 01:35:09;;;;;;;65.88;20.45;;;;;;;-1.20;100.00;94159.34;5021347;28;20042;-71
2022/12/10 01:37:35;;;;;;;67.95;21.85;;;;;;;-1.23;100.00;94156.19;5027894;28;20038;-71
2022/12/10 01:40:00;;;;;;;61.25;20.42;;;;;;;-1.17;100.00;94164.06;5029839;28;20041;-71
2022/12/10 01:42:26;;;;;;;64.18;21.08;;;;;;;-1.15;100.00;94162.03;5013489;28;20038;-69
2022/12/10 01:45:01;;;;;;;63.88;20.92;;;;;;;-1.21;100.00;94168.88;5027986;28;20042;-71
2022/12/10 01:47:26;;;;;;;76.63;22.23;;;;;;;-1.19;100.00;94176.41;5013543;28;21649;-71
2022/12/10 01:49:52;;;;;;;72.22;22.20;;;;;;;-1.24;100.00;94179.66;5028924;28;20042;-71
2022/12/10 01:52:18;;;;;;;79.70;25.05;;;;;;;-1.29;100.00;94188.09;5013832;28;20053;-71
2022/12/10 01:54:46;;;;;;;85.72;24.20;;;;;;;-1.29;100.00;94193.25;5025455;28;20045;-71
2022/12/10 01:57:29;;;;;;;82.72;23.05;;;;;;;-1.25;100.00;94189.22;5024125;28;20041;-71
2022/12/10 01:59:58;;;;;;;72.47;21.88;;;;;;;-1.20;100.00;94185.16;5016921;28;20045;-71
2022/12/10 02:02:46;;;;;;;73.80;21.48;;;;;;;-1.17;100.00;94202.78;5021579;28;20053;-71
2022/12/10 02:05:24;;;;;;;76.68;22.02;;;;;;;-1.15;100.00;94193.00;5021355;28;20038;-71
2022/12/10 02:08:31;;;;;;;76.53;21.17;;;;;;;-1.16;100.00;94192.22;5025645;28;20045;-71
2022/12/10 02:11:17;;;;;;;79.07;22.95;;;;;;;-1.22;100.00;94191.34;5029639;28;20480;-71
2022/12/10 02:14:02;;;;;;;83.93;23.60;;;;;;;-1.32;100.00;94187.75;5011776;28;20077;-71
2022/12/10 02:16:39;;;;;;;71.20;22.63;;;;;;;-1.39;100.00;94193.06;5018517;28;20720;-71
2022/12/10 02:19:19;;;;;;;81.88;22.80;;;;;;;-1.38;100.00;94189.44;5018539;28;20041;-71
2022/12/10 02:21:49;;;;;;;77.07;22.00;;;;;;;-1.27;100.00;94180.91;5020074;28;20044;-71
2022/12/10 02:24:20;;;;;;;76.47;22.23;;;;;;;-1.21;100.00;94186.94;5028690;28;20535;-71
2022/12/10 02:27:00;;;;;;;75.35;23.27;;;;;;;-1.20;100.00;94182.59;5024116;28;20168;-71
2022/12/10 02:29:28;;;;;;;71.78;23.10;;;;;;;-1.34;100.00;94175.09;5023409;28;20044;-71
2022/12/10 02:32:00;;;;;;;68.53;21.92;;;;;;;-1.38;100.00;94179.13;5028349;28;20052;-71
2022/12/10 02:34:30;;;;;;;76.47;22.75;;;;;;;-1.38;100.00;94179.13;5028258;28;20694;-71
2022/12/10 02:37:00;;;;;;;71.72;23.65;;;;;;;-1.33;100.00;94174.06;5014361;28;20038;-71
2022/12/10 02:39:37;;;;;;;78.10;23.15;;;;;;;-1.30;100.00;94171.03;5018757;28;20476;-72
2022/12/10 02:42:07;;;;;;;74.97;22.52;;;;;;;-1.28;100.00;94169.03;5015753;28;20120;-71
2022/12/10 02:44:35;;;;;;;78.95;21.60;;;;;;;-1.22;100.00;94173.28;5024887;28;20507;-71
2022/12/10 02:47:02;;;;;;;89.15;24.90;;;;;;;-1.27;100.00;94160.25;5015864;28;20033;-71
2022/12/10 02:49:29;;;;;;;80.90;23.63;;;;;;;-1.22;100.00;94162.94;5015183;28;20072;-71
2022/12/10 02:51:55;;;;;;;82.63;21.55;;;;;;;-1.25;100.00;94167.75;5028740;28;20053;-70
2022/12/10 02:54:40;;;;;;;85.38;22.30;;;;;;;-1.19;100.00;94171.22;5020858;28;20058;-71
2022/12/10 02:57:46;;;;;;;89.97;23.42;;;;;;;-1.25;100.00;94168.56;5018331;28;20381;-71
2022/12/10 03:00:19;;;;;;;;;;;;;;;-1.26;100.00;94169.56;5029091;28;20515;-71
2022/12/10 03:03:06;;;;;;;81.82;22.45;;;;;;;-1.23;100.00;94161.38;5016422;28;19976;-71
2022/12/10 03:05:46;;;;;;;85.25;23.17;;;;;;;-1.27;100.00;94154.31;5027055;28;20047;-71
2022/12/10 03:08:30;;;;;;;81.55;22.85;;;;;;;-1.25;100.00;94155.66;5031921;28;20407;-71
2022/12/10 03:11:12;;;;;;;67.13;20.63;;;;;;;-1.28;100.00;94169.03;5013023;28;20041;-71
2022/12/10 03:13:52;;;;;;;80.35;22.02;;;;;;;-1.28;100.00;94156.13;5014525;28;20045;-71
2022/12/10 03:16:19;;;;;;;73.68;21.08;;;;;;;-1.29;100.00;94149.38;5019996;28;20515;-71
2022/12/10 03:18:49;;;;;;;74.50;20.92;;;;;;;-1.34;100.00;94157.00;5028151;28;20037;-70
2022/12/10 03:21:16;;;;;;;72.03;21.88;;;;;;;-1.33;100.00;94155.25;5027734;28;20044;-71
2022/12/10 03:23:45;;;;;;;69.47;22.27;;;;;;;-1.34;100.00;94148.50;5023442;28;20052;-70
2022/12/10 03:26:11;;;;;;;67.35;21.25;;;;;;;-1.35;100.00;94152.88;5026895;28;20524;-70
2022/12/10 03:28:42;;;;;;;69.55;21.17;;;;;;;-1.35;100.00;94147.72;5030779;28;20045;-71
2022/12/10 03:31:12;;;;;;;72.05;22.55;;;;;;;-1.35;100.00;94152.88;5032352;28;20049;-70
2022/12/10 03:33:38;;;;;;;73.47;20.73;;;;;;;-1.29;100.00;94157.13;5014314;28;20651;-70
2022/12/10 03:36:06;;;;;;;77.20;21.80;;;;;;;-1.38;100.00;94157.69;5026819;28;20113;-70
2022/12/10 03:38:32;;;;;;;64.25;19.88;;;;;;;-1.33;100.00;94156.00;5019231;28;20328;-68
2022/12/10 03:40:57;;;;;;;63.65;20.20;;;;;;;-1.36;100.00;94153.88;5026951;28;20061;-69
2022/12/10 03:43:23;;;;;;;65.97;20.63;;;;;;;-1.30;100.00;94149.63;5028416;28;20037;-69
2022/12/10 03:45:48;;;;;;;65.63;20.33;;;;;;;-1.36;100.00;94148.72;5026551;28;20046;-69
2022/12/10 03:48:14;;;;;;;70.07;21.08;;;;;;;-1.42;100.00;94157.38;5025619;28;20041;-69
2022/12/10 03:50:39;;;;;;;66.65;21.73;;;;;;;-1.35;100.00;94158.03;5026180;28;20230;-70
2022/12/10 03:53:05;;;;;;;75.63;22.70;;;;;;;-1.31;100.00;94153.97;5019875;28;20514;-69
2022/12/10 03:55:30;;;;;;;70.18;21.77;;;;;;;-1.33;100.00;94145.69;5026120;28;20511;-69
2022/12/10 03:57:56;;;;;;;69.03;22.05;;;;;;;-1.32;100.00;94146.47;5030645;28;20048;-70
2022/12/10 04:00:21;;;;;;;61.75;20.55;;;;;;;-1.35;100.00;94146.91;5030948;28;20045;-70
2022/12/10 04:02:47;;;;;;;67.88;21.38;;;;;;;-1.38;100.00;94148.16;5023520;28;20413;-70
2022/12/10 04:05:12;;;;;;;66.40;20.30;;;;;;;-1.35;100.00;94146.91;5020736;28;20048;-70
2022/12/10 04:07:38;;;;;;;60.13;19.77;;;;;;;-1.30;100.00;94150.38;5022819;28;20488;-70
2022/12/10 04:10:04;;;;;;;58.08;19.08;;;;;;;-1.29;100.00;94141.63;5028688;28;20041;-70
2022/12/10 04:12:29;;;;;;;71.82;22.48;;;;;;;-1.31;100.00;94153.97;5014413;28;20049;-70
2022/12/10 04:17:39;;;;;;;63.57;20.00;;;;;;;-1.31;100.00;94164.28;5027508;28;20050;-69
2022/12/10 04:20:04;;;;;;;67.60;20.08;;;;;;;-1.27;100.00;94170.56;5028768;28;20088;-70
2022/12/10 04:27:58;;;;;;;67.43;19.70;;;;;;;-1.20;100.00;94159.34;5021937;28;20421;-71
2022/12/10 04:30:24;;;;;;;61.25;18.88;;;;;;;-1.23;100.00;94166.53;5029168;28;20458;-71
2022/12/10 04:32:49;;;;;;;62.10;20.67;;;;;;;-1.28;100.00;94158.69;5027647;28;20057;-70
2022/12/10 04:35:15;;;;;;;62.65;20.65;;;;;;;-1.24;100.00;94159.78;5014216;28;20053;-70
2022/12/10 04:37:40;;;;;;;66.65;19.65;;;;;;;-1.25;100.00;94158.25;5027860;28;20067;-70
2022/12/10 04:40:06;;;;;;;64.80;20.67;;;;;;;-1.22;100.00;94173.28;5023136;28;20045;-70
2022/12/10 04:42:32;;;;;;;67.25;21.30;;;;;;;-1.17;100.00;94158.91;5028433;28;20060;-70
2022/12/10 04:44:58;;;;;;;79.05;21.58;;;;;;;-1.26;100.00;94167.00;5021011;28;20495;-70
2022/12/10 04:47:23;;;;;;;68.38;20.15;;;;;;;-1.27;100.00;94170.56;5028149;28;20478;-70
2022/12/10 04:49:49;;;;;;;74.18;21.75;;;;;;;-1.17;100.00;94179.56;5029460;28;20049;-70
2022/12/10 04:52:15;;;;;;;66.82;20.30;;;;;;;-1.16;100.00;94179.31;5022141;28;21227;-70
2022/12/10 04:54:42;;;;;;;68.25;21.33;;;;;;;-1.19;100.00;94171.22;5029951;28;20495;-71
2022/12/10 04:57:08;;;;;;;74.78;21.40;;;;;;;-1.15;100.00;94167.19;5028317;28;20053;-70
2022/12/10 04:59:35;;;;;;;68.88;20.67;;;;;;;-1.19;100.00;94163.50;5029988;28;20037;-70
2022/12/10 05:02:01;;;;;;;75.43;22.95;;;;;;;-1.16;100.00;94160.47;5029750;28;20099;-70
2022/12/10 05:04:26;;;;;;;74.68;21.50;;;;;;;-1.17;100.00;94167.41;5028155;28;20045;-70
2022/12/10 05:06:52;;;;;;;70.82;21.52;;;;;;;-1.22;100.00;94168.09;5025655;28;20111;-70
2022/12/10 05:09:18;;;;;;;78.25;22.58;;;;;;;-1.18;100.00;94168.41;5026319;28;20041;-70
2022/12/10 05:11:46;;;;;;;76.63;22.45;;;;;;;-1.25;100.00;94163.41;5025900;28;20048;-70
2022/12/10 05:14:13;;;;;;;76.65;20.75;;;;;;;-1.15;100.00;94174.94;5016451;28;20060;-69
2022/12/10 05:16:39;;;;;;;74.25;20.90;;;;;;;-1.16;100.00;94178.53;5018572;28;20041;-70
2022/12/10 05:19:05;;;;;;;67.88;21.30;;;;;;;-1.20;100.00;94164.53;5027596;28;20037;-70
2022/12/10 05:24:15;;;;;;;58.73;19.57;;;;;;;-1.25;100.00;94163.41;5029012;28;20049;-70
2022/12/10 05:26:41;;;;;;;83.43;21.80;;;;;;;-1.23;100.00;94161.38;5022567;28;20038;-70
2022/12/10 05:29:07;;;;;;;71.00;21.85;;;;;;;-1.20;100.00;94160.13;5022006;28;20503;-70
2022/12/10 05:31:32;;;;;;;83.20;22.50;;;;;;;-1.22;100.00;94162.94;5028315;28;20033;-69
2022/12/10 05:33:58;;;;;;;74.88;21.08;;;;;;;-1.18;100.00;94167.66;5017811;28;20485;-70
2022/12/10 05:36:26;;;;;;;82.47;23.15;;;;;;;-1.23;100.00;94163.19;5013424;28;20197;-70
2022/12/10 05:38:53;;;;;;;85.13;22.48;;;;;;;-1.24;100.00;94170.13;5029383;28;20038;-71
2022/12/10 05:41:22;;;;;;;94.18;23.90;;;;;;;-1.31;100.00;94174.63;5024283;28;20287;-70
2022/12/10 05:43:48;;;;;;;94.97;25.38;;;;;;;-1.30;100.00;94176.19;5023292;28;20041;-70
2022/12/10 05:46:17;;;;;;;97.85;26.52;;;;;;;-1.35;100.00;94178.69;5018669;28;20447;-70
2022/12/10 05:48:43;;;;;;;75.45;23.27;;;;;;;-1.28;100.00;94187.09;5013435;28;20120;-70
2022/12/10 05:51:14;;;;;;;88.97;25.05;;;;;;;-1.30;100.00;94178.78;5028083;28;20056;-70
2022/12/10 05:53:40;;;;;;;83.43;24.25;;;;;;;-1.32;100.00;94177.44;5021355;28;20530;-72
2022/12/10 05:56:09;;;;;;;78.53;23.30;;;;;;;-1.26;100.00;94179.91;5020236;28;20088;-70
2022/12/10 05:58:35;;;;;;;80.72;24.23;;;;;;;-1.35;100.00;94183.84;5027565;28;20133;-70
2022/12/10 06:01:10;;;;;;;78.72;25.13;;;;;;;-1.36;100.00;94192.59;5028045;28;20033;-71
2022/12/10 06:03:35;;;;;;;;;;;;;;;-1.33;100.00;94192.16;5012304;28;20463;-70
2022/12/10 06:06:01;;;;;;;96.40;25.80;;;;;;;-1.31;100.00;94195.28;5015364;28;20000;-70
2022/12/10 06:08:26;;;;;;;77.45;23.88;;;;;;;-1.34;100.00;94195.72;5015380;28;20602;-71
2022/12/10 06:10:53;;;;;;;90.78;25.73;;;;;;;-1.36;100.00;94200.34;5022122;28;20038;-71
2022/12/10 06:13:19;;;;;;;81.72;24.60;;;;;;;-1.33;100.00;94194.72;5025034;28;20077;-72
2022/12/10 06:15:45;;;;;;;83.97;24.83;;;;;;;-1.38;100.00;94194.59;5021695;28;20042;-71
2022/12/10 06:18:10;;;;;;;80.88;25.00;;;;;;;-1.37;100.00;94191.03;5009773;28;20401;-71
2022/12/10 06:20:40;;;;;;;74.45;24.60;;;;;;;-1.32;100.00;94193.72;5027347;28;20038;-70
2022/12/10 06:23:05;;;;;;;77.20;24.33;;;;;;;-1.40;100.00;94186.31;5016565;28;20052;-71
2022/12/10 06:25:32;;;;;;;78.32;24.75;;;;;;;-1.40;100.00;94187.09;5028030;28;20045;-71
2022/12/10 06:27:57;;;;;;;82.60;25.30;;;;;;;-1.43;100.00;94191.94;5026058;28;20046;-71
2022/12/10 06:30:23;;;;;;;78.25;25.25;;;;;;;-1.35;100.00;94199.34;5019367;28;20100;-70
2022/12/10 06:32:48;;;;;;;84.53;24.77;;;;;;;-1.39;100.00;94193.06;5018617;28;20054;-71
2022/12/10 06:35:14;;;;;;;86.05;24.15;;;;;;;-1.37;100.00;94196.19;5027082;28;20124;-71
2022/12/10 06:37:39;;;;;;;81.65;25.55;;;;;;;-1.41;100.00;94182.97;5023003;28;20052;-71
2022/12/10 06:40:06;;;;;;;72.85;24.13;;;;;;;-1.43;100.00;94186.78;5032363;28;20061;-71
2022/12/10 06:42:31;;;;;;;81.13;25.23;;;;;;;-1.30;100.00;94185.75;5015523;28;20069;-71
2022/12/10 06:44:57;;;;;;;74.38;24.48;;;;;;;-1.45;100.00;94192.16;5030447;28;20096;-71
2022/12/10 06:47:23;;;;;;;78.15;25.48;;;;;;;-1.34;100.00;94195.72;5024918;28;20046;-71
2022/12/10 06:49:48;;;;;;;77.15;24.83;;;;;;;-1.33;100.00;94197.31;5028381;28;20045;-70
2022/12/10 06:52:15;;;;;;;72.75;24.58;;;;;;;-1.36;100.00;94191.81;5032465;28;20045;-70
2022/12/10 06:54:40;;;;;;;79.20;24.42;;;;;;;-1.36;100.00;94197.75;5024184;28;20045;-69
2022/12/10 06:57:06;;;;;;;79.78;23.65;;;;;;;-1.41;100.00;94195.06;5020793;28;20049;-70
2022/12/10 06:59:32;;;;;;;72.57;24.60;;;;;;;-1.42;100.00;94198.69;5024419;28;20051;-70
2022/12/10 07:01:57;;;;;;;72.82;25.52;;;;;;;-1.39;100.00;94203.38;5033211;28;20054;-70
2022/12/10 07:04:23;;;;;;;92.70;25.08;;;;;;;-1.39;100.00;94193.06;5030483;28;20061;-71
2022/12/10 07:06:48;;;;;;;78.45;24.73;;;;;;;-1.50;100.00;94188.69;5030071;28;20046;-72
2022/12/10 07:09:15;;;;;;;86.65;25.27;;;;;;;-1.45;100.00;94193.94;5023538;28;20038;-70
2022/12/10 07:11:41;;;;;;;81.45;23.50;;;;;;;-1.48;100.00;94195.19;5029865;28;20045;-70
2022/12/10 07:14:07;;;;;;;75.57;24.50;;;;;;;-1.51;100.00;94189.69;5031222;28;20407;-70
2022/12/10 07:16:33;;;;;;;79.22;24.10;;;;;;;-1.58;100.00;94194.97;5028471;28;20046;-70
2022/12/10 07:19:01;;;;;;;69.82;24.00;;;;;;;-1.49;100.00;94198.00;5025508;28;20056;-70
2022/12/10 07:21:32;;;;;;;66.32;22.80;;;;;;;-1.45;100.00;94199.91;5024220;28;20048;-69
2022/12/10 07:24:02;;;;;;;73.72;24.95;;;;;;;-1.50;100.00;94201.59;5029351;28;20091;-70
2022/12/10 07:26:29;;;;;;;65.78;23.25;;;;;;;-1.41;100.00;94198.44;5023852;28;20154;-71
2022/12/10 07:28:55;;;;;;;75.95;25.20;;;;;;;-1.42;100.00;94196.88;5029076;28;20454;-70
2022/12/10 07:31:21;;;;;;;67.82;22.63;;;;;;;-1.46;100.00;94202.72;5024739;28;20046;-70
2022/12/10 07:33:49;;;;;;;68.68;22.75;;;;;;;-1.37;100.00;94206.50;5024383;28;20045;-70
2022/12/10 07:36:14;;;;;;;77.53;23.63;;;;;;;-1.29;100.00;94213.91;5030973;28;20045;-70
2022/12/10 07:38:40;;;;;;;72.90;23.45;;;;;;;-1.39;100.00;94208.53;5030684;28;20076;-70
2022/12/10 07:41:09;;;;;;;65.63;23.27;;;;;;;-1.34;100.00;94200.88;5018480;28;20046;-70
2022/12/10 07:43:36;;;;;;;64.03;22.23;;;;;;;-1.41;100.00;94202.81;5022373;28;20414;-71
2022/12/10 07:46:07;;;;;;;66.53;22.67;;;;;;;-1.40;100.00;94206.97;5022837;28;20128;-70
2022/12/10 07:48:34;;;;;;;61.55;22.63;;;;;;;-1.34;100.00;94211.22;5028247;28;20049;-70
2022/12/10 07:51:00;;;;;;;67.50;22.30;;;;;;;-1.30;100.00;94208.97;5018151;28;20091;-70
2022/12/10 07:53:25;;;;;;;75.25;23.27;;;;;;;-1.40;100.00;94206.97;5022111;28;20045;-70
2022/12/10 07:55:51;;;;;;;66.20;20.83;;;;;;;-1.42;100.00;94199.44;5027120;28;20071;-69
2022/12/10 07:58:16;;;;;;;63.45;22.27;;;;;;;-1.35;100.00;94199.34;5021345;28;20037;-70
2022/12/10 08:00:42;;;;;;;55.63;19.15;;;;;;;-1.39;100.00;94203.38;5030012;28;20037;-69
2022/12/10 08:03:08;;;;;;;54.97;19.63;;;;;;;-1.34;100.00;94206.06;5031021;28;20263;-70
2022/12/10 08:05:33;;;;;;;61.95;20.65;;;;;;;-1.32;100.00;94204.03;5021744;28;20053;-70
2022/12/10 08:07:59;;;;;;;60.85;20.98;;;;;;;-1.29;100.00;94208.75;5028695;28;20045;-70
2022/12/10 08:10:24;;;;;;;61.13;21.25;;;;;;;-1.26;100.00;94203.13;5023054;28;20042;-69
2022/12/10 08:12:50;;;;;;;50.67;19.67;;;;;;;-1.17;100.00;94211.31;5026521;28;20499;-70
2022/12/10 08:15:15;;;;;;;59.67;20.40;;;;;;;-1.13;100.00;94206.47;5022589;28;20450;-70
2022/12/10 08:17:41;;;;;;;53.47;20.02;;;;;;;-1.12;100.00;94202.88;5022369;28;20038;-70
2022/12/10 08:20:07;;;;;;;54.45;20.10;;;;;;;-1.17;100.00;94205.38;5024143;28;20057;-69
2022/12/10 08:22:34;;;;;;;67.47;21.00;;;;;;;-1.20;100.00;94205.81;5026927;28;20103;-70
2022/12/10 08:24:59;;;;;;;52.55;20.00;;;;;;;-1.13;100.00;94209.06;5029011;28;20049;-69
2022/12/10 08:27:25;;;;;;;60.97;21.17;;;;;;;-1.15;100.00;94219.63;5017914;28;20124;-70
2022/12/10 08:29:50;;;;;;;64.90;21.17;;;;;;;-1.17;100.00;94210.53;5030281;28;20073;-69
2022/12/10 08:32:16;;;;;;;67.60;22.13;;;;;;;-1.13;100.00;94221.97;5030050;28;20660;-69
2022/12/10 08:34:41;;;;;;;49.95;17.65;;;;;;;-1.19;100.00;94217.69;5020116;28;20049;-68
2022/12/10 08:37:07;;;;;;;53.63;19.92;;;;;;;-1.19;100.00;94213.34;5025321;28;20419;-69
2022/12/10 08:39:33;;;;;;;51.45;19.35;;;;;;;-1.14;100.00;94204.91;5021368;28;20491;-70
2022/12/10 08:41:59;;;;;;;54.75;19.45;;;;;;;-1.05;100.00;94209.50;5019283;28;20096;-68
2022/12/10 08:44:24;;;;;;;55.60;19.13;;;;;;;-1.07;100.00;94215.91;5011119;28;20053;-69
2022/12/10 08:46:50;;;;;;;54.00;18.13;;;;;;;-1.14;100.00;94215.22;5015390;28;20535;-68
2022/12/10 08:49:15;;;;;;;50.20;17.85;;;;;;;-1.07;100.00;94221.06;5028469;28;20095;-69
2022/12/10 08:51:41;;;;;;;53.17;20.00;;;;;;;-1.05;100.00;94226.75;5029995;28;20057;-70
2022/12/10 08:54:06;;;;;;;54.80;18.75;;;;;;;-1.09;100.00;94236.00;5026744;28;20551;-70
2022/12/10 08:56:32;;;;;;;59.33;18.77;;;;;;;-1.04;100.00;94233.50;5021398;28;20411;-69
2022/12/10 08:58:58;;;;;;;51.38;17.80;;;;;;;-1.12;100.00;94229.50;5017819;28;20041;-69
2022/12/10 09:01:24;;;;;;;55.83;18.02;;;;;;;-1.00;100.00;94232.03;5022245;28;20238;-69
2022/12/10 09:03:50;;;;;;;49.83;18.63;;;;;;;-0.97;100.00;94229.00;5010937;28;20046;-70
2022/12/10 09:06:18;;;;;;;51.53;18.10;;;;;;;-0.97;100.00;94221.25;5022538;28;20045;-69
2022/12/10 09:08:44;;;;;;;56.20;19.85;;;;;;;-0.92;100.00;94231.69;5024875;28;20045;-70
2022/12/10 09:11:17;;;;;;;57.42;20.92;;;;;;;-1.11;100.00;94241.38;5027965;28;20033;-70
2022/12/10 09:13:42;;;;;;;56.95;20.10;;;;;;;-1.07;100.00;94242.50;5029226;28;20499;-69
2022/12/10 09:16:09;;;;;;;53.97;19.38;;;;;;;-0.92;100.00;94247.19;5020830;28;20107;-69
2022/12/10 09:18:34;;;;;;;63.17;22.48;;;;;;;-0.91;100.00;94251.31;5020362;28;20067;-70
2022/12/10 09:21:04;;;;;;;61.45;19.73;;;;;;;-0.95;100.00;94250.25;5030334;28;20041;-70
2022/12/10 09:23:30;;;;;;;56.58;19.77;;;;;;;-0.89;100.00;94254.47;5030440;28;20103;-70
2022/12/10 09:25:55;;;;;;;56.28;20.67;;;;;;;-0.95;100.00;94260.56;5024155;28;20038;-70
2022/12/10 09:28:21;;;;;;;60.08;20.48;;;;;;;-0.94;100.00;94251.78;5014509;28;20500;-71
2022/12/10 09:30:58;;;;;;;54.10;18.52;;;;;;;-0.92;100.00;94254.13;5025845;28;20064;-69
2022/12/10 09:33:24;;;;;;;56.60;19.95;;;;;;;-0.96;100.00;94248.66;5022622;28;20582;-70
2022/12/10 09:35:50;;;;;;;52.70;19.63;;;;;;;-1.00;100.00;94257.88;5018800;28;21923;-71
2022/12/10 09:38:15;;;;;;;54.53;19.08;;;;;;;-1.10;100.00;94253.28;5029757;28;20041;-70
2022/12/10 09:40:55;;;;;;;53.25;18.30;;;;;;;-1.06;100.00;94251.81;5027758;28;20340;-70
2022/12/10 09:43:45;;;;;;;53.78;19.10;;;;;;;-1.03;100.00;94250.56;5022259;28;20112;-70
2022/12/10 09:46:31;;;;;;;58.33;19.30;;;;;;;-1.02;100.00;94253.94;5020878;28;20102;-70
2022/12/10 09:49:09;;;;;;;61.50;19.48;;;;;;;-1.01;100.00;94245.97;5021919;28;20419;-70
2022/12/10 09:51:37;;;;;;;64.35;20.90;;;;;;;-0.96;100.00;94240.91;5021898;28;20038;-70
2022/12/10 09:54:25;;;;;;;61.35;22.30;;;;;;;-0.93;100.00;94247.41;5023318;28;20052;-71
2022/12/10 09:56:52;;;;;;;61.47;19.08;;;;;;;-0.87;100.00;94249.84;5024062;28;20580;-70
2022/12/10 09:59:39;;;;;;;58.90;20.75;;;;;;;-0.97;100.00;94247.06;5027778;28;20041;-71
2022/12/10 10:02:25;;;;;;;68.10;21.63;;;;;;;-0.95;100.00;94250.25;5015995;28;20495;-70
2022/12/10 10:04:55;;;;;;;68.15;20.52;;;;;;;-0.94;100.00;94246.63;5024985;28;20041;-71
2022/12/10 10:07:28;;;;;;;70.95;21.15;;;;;;;-0.90;100.00;94247.75;5017214;28;20045;-70
2022/12/10 10:09:59;;;;;;;65.90;20.05;;;;;;;-0.79;100.00;94245.34;5024919;28;20038;-70
2022/12/10 10:12:28;;;;;;;66.38;21.85;;;;;;;-0.94;100.00;94251.00;5028518;28;20046;-70
2022/12/10 10:14:53;;;;;;;56.97;19.13;;;;;;;-0.83;100.00;94242.44;5017026;28;20049;-70
2022/12/10 10:17:27;;;;;;;64.43;19.42;;;;;;;-0.84;100.00;94242.69;5031071;28;20059;-70
2022/12/10 10:19:52;;;;;;;55.85;19.95;;;;;;;-0.94;100.00;94241.44;5022870;28;20069;-70
2022/12/10 10:22:18;;;;;;;59.58;20.05;;;;;;;-0.95;100.00;94245.06;5025504;28;20042;-70
2022/12/10 10:24:46;;;;;;;53.92;19.30;;;;;;;-0.88;100.00;94250.91;5023605;28;20049;-70
2022/12/10 10:27:19;;;;;;;65.63;20.58;;;;;;;-0.87;100.00;94247.28;5022351;28;20057;-70
2022/12/10 10:29:47;;;;;;;59.78;19.90;;;;;;;-0.97;100.00;94241.91;5030176;28;20081;-70
2022/12/10 10:32:16;;;;;;;63.42;20.92;;;;;;;-0.92;100.00;94244.59;5032401;28;20507;-70
2022/12/10 10:34:43;;;;;;;66.57;21.98;;;;;;;-0.89;100.00;94244.16;5025439;28;20041;-69
2022/12/10 10:37:20;;;;;;;66.45;20.65;;;;;;;-0.82;100.00;94248.41;5031468;28;20049;-75
2022/12/10 10:39:50;;;;;;;64.50;20.38;;;;;;;-0.91;100.00;94241.00;5032368;28;20415;-70
2022/12/10 10:42:38;;;;;;;74.20;21.63;;;;;;;-0.87;100.00;94244.69;5029020;28;20045;-70
2022/12/10 10:45:25;;;;;;;63.38;21.42;;;;;;;-0.96;100.00;94237.53;5021730;28;20474;-69
2022/12/10 10:48:12;;;;;;;68.72;22.83;;;;;;;-0.95;100.00;94234.75;5023040;28;20048;-70
2022/12/10 10:51:07;;;;;;;62.97;21.08;;;;;;;-0.89;100.00;94238.97;5028120;28;20046;-71
2022/12/10 10:53:40;;;;;;;67.65;20.55;;;;;;;-0.96;100.00;94235.75;5031591;28;20487;-71
2022/12/10 10:56:19;;;;;;;62.53;20.33;;;;;;;-0.91;100.00;94228.06;5028104;28;20104;-70
2022/12/10 10:58:57;;;;;;;64.60;20.48;;;;;;;-0.91;100.00;94233.25;5028764;28;20676;-73
2022/12/10 11:01:47;;;;;;;59.63;20.05;;;;;;;-0.94;100.00;94218.22;5031115;28;20042;-72
2022/12/10 11:04:15;;;;;;;68.40;22.95;;;;;;;-0.91;100.00;94225.50;5030015;28;20045;-69
2022/12/10 11:06:41;;;;;;;68.32;22.52;;;;;;;-0.87;100.00;94221.44;5015948;28;20045;-68
2022/12/10 11:09:07;;;;;;;69.35;22.42;;;;;;;-0.86;100.00;94211.91;5021216;28;20054;-68
2022/12/10 11:11:40;;;;;;;71.70;21.27;;;;;;;-0.79;100.00;94216.94;5029862;28;20057;-69
2022/12/10 11:14:25;;;;;;;66.68;20.52;;;;;;;-0.74;100.00;94224.78;5027670;28;20099;-69
2022/12/10 11:16:50;;;;;;;70.32;21.10;;;;;;;-0.77;100.00;94225.25;5022785;28;20449;-69
2022/12/10 11:19:21;;;;;;;67.55;20.60;;;;;;;-0.75;100.00;94220.63;5025723;28;20041;-69
2022/12/10 11:21:47;;;;;;;62.80;20.52;;;;;;;-0.68;100.00;94218.69;5030975;28;20041;-71
2022/12/10 11:24:16;;;;;;;71.35;21.00;;;;;;;-0.80;100.00;94220.56;5025264;28;20164;-70
2022/12/10 11:27:01;;;;;;;72.85;21.08;;;;;;;-0.72;100.00;94218.38;5024382;28;20038;-70
2022/12/10 11:29:36;;;;;;;67.82;21.70;;;;;;;-0.71;100.00;94214.00;5031451;28;20502;-69